Rockaway Beach, Missouri
Current Conditions -  °F | °C
As of 4:45 PM on Friday 24 Oct 2014 (Local Time) from KBBG Reporting Station
Overcast Overcast  
Wind Chill: 77°   Ceiling: 20000
Heat Index: 79°   Visibility: 10mi
Dew Point: 59°   Wind: 5mph
Humidity: 54%   Direction: 320°NW
Pressure: 30.07"   Gusts: NA
Location:  36.7°N, 93.16°W
Report Text: KBBG 242145Z 32004KT 10SM OVC200 25/15 A3007
Loading
Personal Weather Stations






























Interactive Weather Map
Tropical Storm Tracking
New forecast layout! Learn more

10-Day Weather Forecast

Advertisements
Track Severe Weather on mobile